sensor_id;sensor_type;location;lat;lon;timestamp;temperature;humidity
48007;DHT22;33771;48.180;11.400;2023-01-19T00:01:09;-0.50;99.90
48007;DHT22;33771;48.180;11.400;2023-01-19T00:03:35;-0.60;99.90
48007;DHT22;33771;48.180;11.400;2023-01-19T00:06:07;-0.60;99.90
48007;DHT22;33771;48.180;11.400;2023-01-19T00:08:33;-0.60;99.90
48007;DHT22;33771;48.180;11.400;2023-01-19T00:11:02;-0.60;99.90
48007;DHT22;33771;48.180;11.400;2023-01-19T00:13:28;-0.60;99.90
48007;DHT22;33771;48.180;11.400;2023-01-19T00:15:54;-0.60;99.90
48007;DHT22;33771;48.180;11.400;2023-01-19T00:18:19;-0.60;99.90
48007;DHT22;33771;48.180;11.400;2023-01-19T00:20:46;-0.60;99.90
48007;DHT22;33771;48.180;11.400;2023-01-19T00:23:12;-0.60;99.90
48007;DHT22;33771;48.180;11.400;2023-01-19T00:25:39;-0.60;99.90
48007;DHT22;33771;48.180;11.400;2023-01-19T00:28:08;-0.60;99.90
48007;DHT22;33771;48.180;11.400;2023-01-19T00:30:33;-0.60;99.90
48007;DHT22;33771;48.180;11.400;2023-01-19T00:32:59;-0.60;99.90
48007;DHT22;33771;48.180;11.400;2023-01-19T00:35:24;-0.60;99.90
48007;DHT22;33771;48.180;11.400;2023-01-19T00:37:50;-0.60;99.90
48007;DHT22;33771;48.180;11.400;2023-01-19T00:40:16;-0.60;99.90
48007;DHT22;33771;48.180;11.400;2023-01-19T00:42:42;-0.60;99.90
48007;DHT22;33771;48.180;11.400;2023-01-19T00:45:14;-0.60;99.90
48007;DHT22;33771;48.180;11.400;2023-01-19T00:47:40;-0.60;99.90
48007;DHT22;33771;48.180;11.400;2023-01-19T00:50:11;-0.60;99.90
48007;DHT22;33771;48.180;11.400;2023-01-19T00:52:38;-0.60;99.90
48007;DHT22;33771;48.180;11.400;2023-01-19T00:55:05;-0.60;99.90
48007;DHT22;33771;48.180;11.400;2023-01-19T00:57:31;-0.60;99.90
48007;DHT22;33771;48.180;11.400;2023-01-19T00:59:57;-0.60;99.90
48007;DHT22;33771;48.180;11.400;2023-01-19T01:02:22;-0.60;99.90
48007;DHT22;33771;48.180;11.400;2023-01-19T01:04:48;-0.60;99.90
48007;DHT22;33771;48.180;11.400;2023-01-19T01:07:20;-0.60;99.90
48007;DHT22;33771;48.180;11.400;2023-01-19T01:09:45;-0.60;99.90
48007;DHT22;33771;48.180;11.400;2023-01-19T01:12:11;-0.60;99.90
48007;DHT22;33771;48.180;11.400;2023-01-19T01:14:36;-0.60;99.90
48007;DHT22;33771;48.180;11.400;2023-01-19T01:17:02;-0.60;99.90
48007;DHT22;33771;48.180;11.400;2023-01-19T01:19:27;-0.60;99.90
48007;DHT22;33771;48.180;11.400;2023-01-19T01:21:53;-0.60;99.90
48007;DHT22;33771;48.180;11.400;2023-01-19T01:24:20;-0.60;99.90
48007;DHT22;33771;48.180;11.400;2023-01-19T01:26:46;-0.60;99.90
48007;DHT22;33771;48.180;11.400;2023-01-19T01:29:11;-0.60;99.90
48007;DHT22;33771;48.180;11.400;2023-01-19T01:31:37;-0.60;99.90
48007;DHT22;33771;48.180;11.400;2023-01-19T01:34:02;-0.60;99.90
48007;DHT22;33771;48.180;11.400;2023-01-19T01:36:28;-0.70;99.90
48007;DHT22;33771;48.180;11.400;2023-01-19T01:38:56;-0.70;99.90
48007;DHT22;33771;48.180;11.400;2023-01-19T01:41:22;-0.70;99.90
48007;DHT22;33771;48.180;11.400;2023-01-19T01:43:50;-0.70;99.90
48007;DHT22;33771;48.180;11.400;2023-01-19T01:46:18;-0.70;99.90
48007;DHT22;33771;48.180;11.400;2023-01-19T01:48:49;-0.60;99.90
48007;DHT22;33771;48.180;11.400;2023-01-19T01:56:38;-0.70;99.90
48007;DHT22;33771;48.180;11.400;2023-01-19T01:59:08;-0.70;99.90
48007;DHT22;33771;48.180;11.400;2023-01-19T02:01:35;-0.70;99.90
48007;DHT22;33771;48.180;11.400;2023-01-19T02:04:20;-0.70;99.90
48007;DHT22;33771;48.180;11.400;2023-01-19T02:06:47;-0.70;99.90
48007;DHT22;33771;48.180;11.400;2023-01-19T02:09:33;-0.70;99.90
48007;DHT22;33771;48.180;11.400;2023-01-19T02:12:18;-0.70;99.90
48007;DHT22;33771;48.180;11.400;2023-01-19T02:15:02;-0.80;99.90
48007;DHT22;33771;48.180;11.400;2023-01-19T02:17:27;-0.80;99.90
48007;DHT22;33771;48.180;11.400;2023-01-19T02:19:53;-0.80;99.90
48007;DHT22;33771;48.180;11.400;2023-01-19T02:22:30;-0.80;99.90
48007;DHT22;33771;48.180;11.400;2023-01-19T02:25:03;-0.80;99.90
48007;DHT22;33771;48.180;11.400;2023-01-19T02:27:30;-0.80;99.90
48007;DHT22;33771;48.180;11.400;2023-01-19T02:29:56;-0.80;99.90
48007;DHT22;33771;48.180;11.400;2023-01-19T02:32:22;-0.80;99.90
48007;DHT22;33771;48.180;11.400;2023-01-19T02:34:48;-0.80;99.90
48007;DHT22;33771;48.180;11.400;2023-01-19T02:37:14;-0.80;99.90
48007;DHT22;33771;48.180;11.400;2023-01-19T02:39:44;-0.80;99.90
48007;DHT22;33771;48.180;11.400;2023-01-19T02:42:14;-0.90;99.90
48007;DHT22;33771;48.180;11.400;2023-01-19T02:44:44;-0.90;99.90
48007;DHT22;33771;48.180;11.400;2023-01-19T02:47:12;-0.90;99.90
48007;DHT22;33771;48.180;11.400;2023-01-19T02:49:37;-0.90;99.90
48007;DHT22;33771;48.180;11.400;2023-01-19T02:52:03;-0.90;99.90
48007;DHT22;33771;48.180;11.400;2023-01-19T02:57:41;-1.00;99.90
48007;DHT22;33771;48.180;11.400;2023-01-19T03:00:22;-1.10;99.90
48007;DHT22;33771;48.180;11.400;2023-01-19T03:05:44;-1.10;99.90
48007;DHT22;33771;48.180;11.400;2023-01-19T03:11:04;-1.10;99.90
48007;DHT22;33771;48.180;11.400;2023-01-19T03:13:44;-1.10;99.90
48007;DHT22;33771;48.180;11.400;2023-01-19T03:18:53;-1.20;99.90
48007;DHT22;33771;48.180;11.400;2023-01-19T03:21:21;-1.20;99.90
48007;DHT22;33771;48.180;11.400;2023-01-19T03:23:49;-1.20;99.90
48007;DHT22;33771;48.180;11.400;2023-01-19T03:26:18;-1.20;99.90
48007;DHT22;33771;48.180;11.400;2023-01-19T03:28:46;-1.20;99.90
48007;DHT22;33771;48.180;11.400;2023-01-19T03:31:16;-1.20;99.90
48007;DHT22;33771;48.180;11.400;2023-01-19T03:33:46;-1.20;99.90
48007;DHT22;33771;48.180;11.400;2023-01-19T03:36:39;-1.20;99.90
48007;DHT22;33771;48.180;11.400;2023-01-19T03:39:04;-1.20;99.90
48007;DHT22;33771;48.180;11.400;2023-01-19T03:41:32;-1.30;99.90
48007;DHT22;33771;48.180;11.400;2023-01-19T03:43:59;-1.30;99.90
48007;DHT22;33771;48.180;11.400;2023-01-19T03:46:25;-1.30;99.90
48007;DHT22;33771;48.180;11.400;2023-01-19T03:48:51;-1.40;99.90
48007;DHT22;33771;48.180;11.400;2023-01-19T03:51:18;-1.40;99.90
48007;DHT22;33771;48.180;11.400;2023-01-19T03:53:44;-1.40;99.90
48007;DHT22;33771;48.180;11.400;2023-01-19T03:56:17;-1.40;99.90
48007;DHT22;33771;48.180;11.400;2023-01-19T03:58:42;-1.50;99.90
48007;DHT22;33771;48.180;11.400;2023-01-19T04:01:08;-1.50;99.90
48007;DHT22;33771;48.180;11.400;2023-01-19T04:03:33;-1.50;99.90
48007;DHT22;33771;48.180;11.400;2023-01-19T04:05:59;-1.50;99.90
48007;DHT22;33771;48.180;11.400;2023-01-19T04:08:25;-1.50;99.90
48007;DHT22;33771;48.180;11.400;2023-01-19T04:10:50;-1.50;99.90
48007;DHT22;33771;48.180;11.400;2023-01-19T04:13:16;-1.50;99.90
48007;DHT22;33771;48.180;11.400;2023-01-19T04:15:41;-1.50;99.90
48007;DHT22;33771;48.180;11.400;2023-01-19T04:18:07;-1.50;99.90
48007;DHT22;33771;48.180;11.400;2023-01-19T04:20:33;-1.50;99.90
48007;DHT22;33771;48.180;11.400;2023-01-19T04:22:59;-1.60;99.90
48007;DHT22;33771;48.180;11.400;2023-01-19T04:25:25;-1.60;99.90
48007;DHT22;33771;48.180;11.400;2023-01-19T04:27:52;-1.60;99.90
48007;DHT22;33771;48.180;11.400;2023-01-19T04:30:18;-1.60;99.90
48007;DHT22;33771;48.180;11.400;2023-01-19T04:32:44;-1.60;99.90
48007;DHT22;33771;48.180;11.400;2023-01-19T04:35:09;-1.60;99.90
48007;DHT22;33771;48.180;11.400;2023-01-19T04:37:35;-1.60;99.90
48007;DHT22;33771;48.180;11.400;2023-01-19T04:40:00;-1.70;99.90
48007;DHT22;33771;48.180;11.400;2023-01-19T04:42:26;-1.70;99.90
48007;DHT22;33771;48.180;11.400;2023-01-19T04:44:52;-1.70;99.90
48007;DHT22;33771;48.180;11.400;2023-01-19T04:47:18;-1.80;99.90
48007;DHT22;33771;48.180;11.400;2023-01-19T04:49:44;-1.80;99.90
48007;DHT22;33771;48.180;11.400;2023-01-19T04:52:09;-1.80;99.90
48007;DHT22;33771;48.180;11.400;2023-01-19T04:54:35;-1.90;99.90
48007;DHT22;33771;48.180;11.400;2023-01-19T04:57:01;-1.90;99.90
48007;DHT22;33771;48.180;11.400;2023-01-19T04:59:26;-1.90;99.90
48007;DHT22;33771;48.180;11.400;2023-01-19T05:01:52;-1.90;99.90
48007;DHT22;33771;48.180;11.400;2023-01-19T05:04:17;-2.00;99.90
48007;DHT22;33771;48.180;11.400;2023-01-19T05:06:43;-2.00;99.90
48007;DHT22;33771;48.180;11.400;2023-01-19T05:09:09;-2.00;99.90
48007;DHT22;33771;48.180;11.400;2023-01-19T05:11:37;-2.00;99.90
48007;DHT22;33771;48.180;11.400;2023-01-19T05:14:03;-2.10;99.90
48007;DHT22;33771;48.180;11.400;2023-01-19T05:16:31;-2.10;99.90
48007;DHT22;33771;48.180;11.400;2023-01-19T05:18:59;-2.10;99.90
48007;DHT22;33771;48.180;11.400;2023-01-19T05:21:24;-2.20;99.90
48007;DHT22;33771;48.180;11.400;2023-01-19T05:23:50;-2.20;99.90
48007;DHT22;33771;48.180;11.400;2023-01-19T05:26:15;-2.20;99.90
48007;DHT22;33771;48.180;11.400;2023-01-19T05:28:41;-2.30;99.90
48007;DHT22;33771;48.180;11.400;2023-01-19T05:31:06;-2.30;99.90
48007;DHT22;33771;48.180;11.400;2023-01-19T05:33:32;-2.30;99.90
48007;DHT22;33771;48.180;11.400;2023-01-19T05:35:58;-2.40;99.90
48007;DHT22;33771;48.180;11.400;2023-01-19T05:38:23;-2.40;99.90
48007;DHT22;33771;48.180;11.400;2023-01-19T05:40:55;-2.40;99.90
48007;DHT22;33771;48.180;11.400;2023-01-19T05:43:21;-2.50;99.90
48007;DHT22;33771;48.180;11.400;2023-01-19T05:45:46;-2.50;99.90
48007;DHT22;33771;48.180;11.400;2023-01-19T05:48:12;-2.50;99.90
48007;DHT22;33771;48.180;11.400;2023-01-19T05:50:37;-2.60;99.90
48007;DHT22;33771;48.180;11.400;2023-01-19T05:53:03;-2.60;99.90
48007;DHT22;33771;48.180;11.400;2023-01-19T05:55:29;-2.60;99.90
48007;DHT22;33771;48.180;11.400;2023-01-19T05:57:54;-2.60;99.90
48007;DHT22;33771;48.180;11.400;2023-01-19T06:00:20;-2.60;99.90
48007;DHT22;33771;48.180;11.400;2023-01-19T06:02:45;-2.60;99.90
48007;DHT22;33771;48.180;11.400;2023-01-19T06:05:13;-2.70;99.90
48007;DHT22;33771;48.180;11.400;2023-01-19T06:07:39;-2.70;99.90
48007;DHT22;33771;48.180;11.400;2023-01-19T06:10:08;-2.70;99.90
48007;DHT22;33771;48.180;11.400;2023-01-19T06:12:34;-2.70;99.90
48007;DHT22;33771;48.180;11.400;2023-01-19T06:14:59;-2.70;99.90
48007;DHT22;33771;48.180;11.400;2023-01-19T06:17:25;-2.70;99.90
48007;DHT22;33771;48.180;11.400;2023-01-19T06:19:50;-2.70;99.90
48007;DHT22;33771;48.180;11.400;2023-01-19T06:22:16;-2.60;99.90
48007;DHT22;33771;48.180;11.400;2023-01-19T06:24:41;-2.60;99.90
48007;DHT22;33771;48.180;11.400;2023-01-19T06:27:07;-2.60;99.90
48007;DHT22;33771;48.180;11.400;2023-01-19T06:29:33;-2.60;99.90
48007;DHT22;33771;48.180;11.400;2023-01-19T06:31:58;-2.60;99.90
48007;DHT22;33771;48.180;11.400;2023-01-19T06:34:24;-2.60;99.90
48007;DHT22;33771;48.180;11.400;2023-01-19T06:36:56;-2.50;99.90
48007;DHT22;33771;48.180;11.400;2023-01-19T06:39:22;-2.50;99.90
48007;DHT22;33771;48.180;11.400;2023-01-19T06:41:48;-2.50;99.90
48007;DHT22;33771;48.180;11.400;2023-01-19T06:44:13;-2.50;99.90
48007;DHT22;33771;48.180;11.400;2023-01-19T06:46:39;-2.40;99.90
48007;DHT22;33771;48.180;11.400;2023-01-19T06:49:05;-2.40;99.90
48007;DHT22;33771;48.180;11.400;2023-01-19T06:51:30;-2.40;99.90
48007;DHT22;33771;48.180;11.400;2023-01-19T06:53:56;-2.50;99.90
48007;DHT22;33771;48.180;11.400;2023-01-19T06:56:22;-2.40;99.90
48007;DHT22;33771;48.180;11.400;2023-01-19T06:58:47;-2.40;99.90
48007;DHT22;33771;48.180;11.400;2023-01-19T07:01:15;-2.50;99.90
48007;DHT22;33771;48.180;11.400;2023-01-19T07:03:40;-2.50;99.90
48007;DHT22;33771;48.180;11.400;2023-01-19T07:06:06;-2.50;99.90
48007;DHT22;33771;48.180;11.400;2023-01-19T07:08:33;-2.50;99.90
48007;DHT22;33771;48.180;11.400;2023-01-19T07:11:06;-2.50;99.90
48007;DHT22;33771;48.180;11.400;2023-01-19T07:13:33;-2.60;99.90
48007;DHT22;33771;48.180;11.400;2023-01-19T07:16:05;-2.60;99.90
48007;DHT22;33771;48.180;11.400;2023-01-19T07:18:32;-2.60;99.90
48007;DHT22;33771;48.180;11.400;2023-01-19T07:20:58;-2.70;99.90
48007;DHT22;33771;48.180;11.400;2023-01-19T07:23:23;-2.70;99.90
48007;DHT22;33771;48.180;11.400;2023-01-19T07:25:49;-2.70;99.90
48007;DHT22;33771;48.180;11.400;2023-01-19T07:28:15;-2.70;99.90
48007;DHT22;33771;48.180;11.400;2023-01-19T07:30:44;-2.70;99.90
48007;DHT22;33771;48.180;11.400;2023-01-19T07:33:12;-2.80;99.90
48007;DHT22;33771;48.180;11.400;2023-01-19T07:35:38;-2.80;99.90
48007;DHT22;33771;48.180;11.400;2023-01-19T07:38:03;-2.80;99.90
48007;DHT22;33771;48.180;11.400;2023-01-19T07:40:29;-2.80;99.90
48007;DHT22;33771;48.180;11.400;2023-01-19T07:42:54;-2.80;99.90
48007;DHT22;33771;48.180;11.400;2023-01-19T07:45:20;-2.80;99.90
48007;DHT22;33771;48.180;11.400;2023-01-19T07:47:47;-2.80;99.90
48007;DHT22;33771;48.180;11.400;2023-01-19T07:50:16;-2.80;99.90
48007;DHT22;33771;48.180;11.400;2023-01-19T07:52:45;-2.80;99.90
48007;DHT22;33771;48.180;11.400;2023-01-19T07:55:11;-2.80;99.90
48007;DHT22;33771;48.180;11.400;2023-01-19T07:57:37;-2.70;99.90
48007;DHT22;33771;48.180;11.400;2023-01-19T08:00:03;-2.80;99.90
48007;DHT22;33771;48.180;11.400;2023-01-19T08:02:29;-2.70;99.90
48007;DHT22;33771;48.180;11.400;2023-01-19T08:04:56;-2.70;99.90
48007;DHT22;33771;48.180;11.400;2023-01-19T08:07:21;-2.70;99.90
48007;DHT22;33771;48.180;11.400;2023-01-19T08:09:47;-2.70;99.90
48007;DHT22;33771;48.180;11.400;2023-01-19T08:12:12;-2.70;99.90
48007;DHT22;33771;48.180;11.400;2023-01-19T08:14:38;-2.60;99.90
48007;DHT22;33771;48.180;11.400;2023-01-19T08:17:03;-2.60;99.90
48007;DHT22;33771;48.180;11.400;2023-01-19T08:19:29;-2.60;99.90
48007;DHT22;33771;48.180;11.400;2023-01-19T08:21:55;-2.60;99.90
48007;DHT22;33771;48.180;11.400;2023-01-19T08:24:23;-2.50;99.90
48007;DHT22;33771;48.180;11.400;2023-01-19T08:26:58;-2.50;99.90
48007;DHT22;33771;48.180;11.400;2023-01-19T08:29:23;-2.50;99.90
48007;DHT22;33771;48.180;11.400;2023-01-19T08:31:49;-2.40;99.90
48007;DHT22;33771;48.180;11.400;2023-01-19T08:34:15;-2.40;99.90
48007;DHT22;33771;48.180;11.400;2023-01-19T08:36:40;-2.30;99.90
48007;DHT22;33771;48.180;11.400;2023-01-19T08:39:06;-2.30;99.90
48007;DHT22;33771;48.180;11.400;2023-01-19T08:41:31;-2.20;99.90
48007;DHT22;33771;48.180;11.400;2023-01-19T08:43:57;-2.20;99.90
48007;DHT22;33771;48.180;11.400;2023-01-19T08:46:23;-2.20;99.90
48007;DHT22;33771;48.180;11.400;2023-01-19T08:48:48;-2.20;99.90
48007;DHT22;33771;48.180;11.400;2023-01-19T08:51:15;-2.20;99.90
48007;DHT22;33771;48.180;11.400;2023-01-19T08:53:42;-2.10;99.90
48007;DHT22;33771;48.180;11.400;2023-01-19T08:56:10;-2.10;99.90
48007;DHT22;33771;48.180;11.400;2023-01-19T08:58:40;-2.10;99.90
48007;DHT22;33771;48.180;11.400;2023-01-19T09:01:07;-2.00;99.90
48007;DHT22;33771;48.180;11.400;2023-01-19T09:03:37;-1.90;99.90
48007;DHT22;33771;48.180;11.400;2023-01-19T09:06:06;-1.80;99.90
48007;DHT22;33771;48.180;11.400;2023-01-19T09:08:32;-1.80;99.90
48007;DHT22;33771;48.180;11.400;2023-01-19T09:10:58;-1.70;99.90
48007;DHT22;33771;48.180;11.400;2023-01-19T09:13:23;-1.70;99.90
48007;DHT22;33771;48.180;11.400;2023-01-19T09:15:50;-1.70;99.90
48007;DHT22;33771;48.180;11.400;2023-01-19T09:18:18;-1.70;99.90
48007;DHT22;33771;48.180;11.400;2023-01-19T09:20:45;-1.70;99.90
48007;DHT22;33771;48.180;11.400;2023-01-19T09:23:13;-1.70;99.90
48007;DHT22;33771;48.180;11.400;2023-01-19T09:25:41;-1.70;99.90
48007;DHT22;33771;48.180;11.400;2023-01-19T09:28:09;-1.70;99.90
48007;DHT22;33771;48.180;11.400;2023-01-19T09:30:36;-1.70;99.90
48007;DHT22;33771;48.180;11.400;2023-01-19T09:33:04;-1.70;99.90
48007;DHT22;33771;48.180;11.400;2023-01-19T09:35:31;-1.70;99.90
48007;DHT22;33771;48.180;11.400;2023-01-19T09:37:57;-1.60;99.90
48007;DHT22;33771;48.180;11.400;2023-01-19T09:40:26;-1.70;99.90
48007;DHT22;33771;48.180;11.400;2023-01-19T09:43:11;-1.70;99.90
48007;DHT22;33771;48.180;11.400;2023-01-19T09:51:02;-1.50;99.90
48007;DHT22;33771;48.180;11.400;2023-01-19T09:53:33;-1.50;99.90
48007;DHT22;33771;48.180;11.400;2023-01-19T09:56:03;-1.50;99.90
48007;DHT22;33771;48.180;11.400;2023-01-19T09:58:29;-1.40;99.90
48007;DHT22;33771;48.180;11.400;2023-01-19T10:01:01;-1.40;99.90
48007;DHT22;33771;48.180;11.400;2023-01-19T10:03:28;-1.40;99.90
48007;DHT22;33771;48.180;11.400;2023-01-19T10:05:58;-1.30;99.90
48007;DHT22;33771;48.180;11.400;2023-01-19T10:08:53;-1.30;99.90
48007;DHT22;33771;48.180;11.400;2023-01-19T10:11:33;-1.30;99.90
48007;DHT22;33771;48.180;11.400;2023-01-19T10:14:02;-1.20;99.90
48007;DHT22;33771;48.180;11.400;2023-01-19T10:16:55;-1.10;99.90
48007;DHT22;33771;48.180;11.400;2023-01-19T10:19:34;-1.10;99.90
48007;DHT22;33771;48.180;11.400;2023-01-19T10:22:16;-1.00;99.90
48007;DHT22;33771;48.180;11.400;2023-01-19T10:24:45;-0.90;99.90
48007;DHT22;33771;48.180;11.400;2023-01-19T10:27:20;-0.80;99.90
48007;DHT22;33771;48.180;11.400;2023-01-19T10:29:48;-0.60;99.90
48007;DHT22;33771;48.180;11.400;2023-01-19T10:34:42;-0.50;99.90
48007;DHT22;33771;48.180;11.400;2023-01-19T10:39:44;-0.30;99.90
48007;DHT22;33771;48.180;11.400;2023-01-19T10:42:19;-0.30;99.90
48007;DHT22;33771;48.180;11.400;2023-01-19T10:44:44;-0.30;99.90
48007;DHT22;33771;48.180;11.400;2023-01-19T10:47:20;-0.30;99.90
48007;DHT22;33771;48.180;11.400;2023-01-19T10:49:49;-0.30;99.90
48007;DHT22;33771;48.180;11.400;2023-01-19T10:54:48;-0.10;99.90
48007;DHT22;33771;48.180;11.400;2023-01-19T10:57:29;-0.10;99.90
48007;DHT22;33771;48.180;11.400;2023-01-19T10:59:55;-0.10;99.90
48007;DHT22;33771;48.180;11.400;2023-01-19T11:02:24;-0.10;99.90
48007;DHT22;33771;48.180;11.400;2023-01-19T11:04:58;-0.10;99.90
48007;DHT22;33771;48.180;11.400;2023-01-19T11:07:28;-0.10;99.90
48007;DHT22;33771;48.180;11.400;2023-01-19T11:15:40;0.00;99.90
48007;DHT22;33771;48.180;11.400;2023-01-19T11:18:07;0.10;99.90
48007;DHT22;33771;48.180;11.400;2023-01-19T11:21:03;0.00;99.90
48007;DHT22;33771;48.180;11.400;2023-01-19T11:23:49;0.10;99.90
48007;DHT22;33771;48.180;11.400;2023-01-19T11:29:01;0.20;99.90
48007;DHT22;33771;48.180;11.400;2023-01-19T11:31:33;0.30;99.90
48007;DHT22;33771;48.180;11.400;2023-01-19T11:34:29;0.40;99.90
48007;DHT22;33771;48.180;11.400;2023-01-19T11:39:25;0.60;99.90
48007;DHT22;33771;48.180;11.400;2023-01-19T11:42:03;0.60;99.90
48007;DHT22;33771;48.180;11.400;2023-01-19T11:44:34;0.60;99.90
48007;DHT22;33771;48.180;11.400;2023-01-19T11:47:09;0.70;99.90
48007;DHT22;33771;48.180;11.400;2023-01-19T11:52:27;0.80;99.90
48007;DHT22;33771;48.180;11.400;2023-01-19T11:57:52;0.80;99.90
48007;DHT22;33771;48.180;11.400;2023-01-19T12:06:09;1.10;99.90
48007;DHT22;33771;48.180;11.400;2023-01-19T12:08:48;1.20;99.90
48007;DHT22;33771;48.180;11.400;2023-01-19T12:11:19;1.20;99.90
48007;DHT22;33771;48.180;11.400;2023-01-19T12:13:47;1.30;99.90
48007;DHT22;33771;48.180;11.400;2023-01-19T12:16:19;1.30;99.90
48007;DHT22;33771;48.180;11.400;2023-01-19T12:21:22;1.50;99.90
48007;DHT22;33771;48.180;11.400;2023-01-19T12:29:11;1.40;99.90
48007;DHT22;33771;48.180;11.400;2023-01-19T12:31:37;1.40;99.90
48007;DHT22;33771;48.180;11.400;2023-01-19T12:34:26;1.30;99.90
48007;DHT22;33771;48.180;11.400;2023-01-19T12:37:03;1.30;99.90
48007;DHT22;33771;48.180;11.400;2023-01-19T12:39:32;1.20;99.90
48007;DHT22;33771;48.180;11.400;2023-01-19T12:42:12;1.20;99.90
48007;DHT22;33771;48.180;11.400;2023-01-19T12:44:40;1.20;99.90
48007;DHT22;33771;48.180;11.400;2023-01-19T12:47:17;1.10;99.90
48007;DHT22;33771;48.180;11.400;2023-01-19T12:49:47;1.10;99.90
48007;DHT22;33771;48.180;11.400;2023-01-19T13:00:06;1.10;99.90
48007;DHT22;33771;48.180;11.400;2023-01-19T13:02:43;1.10;99.90
48007;DHT22;33771;48.180;11.400;2023-01-19T13:13:30;1.10;99.90
48007;DHT22;33771;48.180;11.400;2023-01-19T13:18:42;1.10;99.90
48007;DHT22;33771;48.180;11.400;2023-01-19T13:21:09;1.00;99.90
48007;DHT22;33771;48.180;11.400;2023-01-19T13:26:20;1.10;99.90
48007;DHT22;33771;48.180;11.400;2023-01-19T13:28:51;1.10;99.90
48007;DHT22;33771;48.180;11.400;2023-01-19T13:31:18;1.20;99.90
48007;DHT22;33771;48.180;11.400;2023-01-19T13:38:56;1.30;99.90
48007;DHT22;33771;48.180;11.400;2023-01-19T13:41:24;1.30;99.90
48007;DHT22;33771;48.180;11.400;2023-01-19T13:43:58;1.30;99.90
48007;DHT22;33771;48.180;11.400;2023-01-19T13:46:26;1.20;99.90
48007;DHT22;33771;48.180;11.400;2023-01-19T13:48:55;1.20;99.90
48007;DHT22;33771;48.180;11.400;2023-01-19T13:51:21;1.10;99.90
48007;DHT22;33771;48.180;11.400;2023-01-19T13:53:58;1.10;99.90
48007;DHT22;33771;48.180;11.400;2023-01-19T13:56:27;1.10;99.90
48007;DHT22;33771;48.180;11.400;2023-01-19T13:59:00;1.00;99.90
48007;DHT22;33771;48.180;11.400;2023-01-19T14:01:26;1.00;99.90
48007;DHT22;33771;48.180;11.400;2023-01-19T14:03:52;1.00;99.90
48007;DHT22;33771;48.180;11.400;2023-01-19T14:06:39;1.00;99.90
48007;DHT22;33771;48.180;11.400;2023-01-19T14:09:17;1.00;99.90
48007;DHT22;33771;48.180;11.400;2023-01-19T14:11:45;0.90;99.90
48007;DHT22;33771;48.180;11.400;2023-01-19T14:14:25;0.90;99.90
48007;DHT22;33771;48.180;11.400;2023-01-19T14:16:51;0.90;99.90
48007;DHT22;33771;48.180;11.400;2023-01-19T14:19:17;0.90;99.90
48007;DHT22;33771;48.180;11.400;2023-01-19T14:21:42;0.80;99.90
48007;DHT22;33771;48.180;11.400;2023-01-19T14:24:17;0.80;99.90
48007;DHT22;33771;48.180;11.400;2023-01-19T14:26:44;0.80;99.90
48007;DHT22;33771;48.180;11.400;2023-01-19T14:31:44;0.80;99.90
48007;DHT22;33771;48.180;11.400;2023-01-19T14:34:30;0.90;99.90
48007;DHT22;33771;48.180;11.400;2023-01-19T14:36:55;0.80;99.90
48007;DHT22;33771;48.180;11.400;2023-01-19T14:39:24;0.70;99.90
48007;DHT22;33771;48.180;11.400;2023-01-19T14:41:51;0.70;99.90
48007;DHT22;33771;48.180;11.400;2023-01-19T14:44:30;0.70;99.90
48007;DHT22;33771;48.180;11.400;2023-01-19T14:46:56;0.70;99.90
48007;DHT22;33771;48.180;11.400;2023-01-19T14:49:40;0.80;99.90
48007;DHT22;33771;48.180;11.400;2023-01-19T14:52:20;0.80;99.90
48007;DHT22;33771;48.180;11.400;2023-01-19T14:54:47;0.70;99.90
48007;DHT22;33771;48.180;11.400;2023-01-19T14:57:14;0.70;99.90
48007;DHT22;33771;48.180;11.400;2023-01-19T14:59:40;0.70;99.90
48007;DHT22;33771;48.180;11.400;2023-01-19T15:02:06;0.70;99.90
48007;DHT22;33771;48.180;11.400;2023-01-19T15:04:32;0.70;99.90
48007;DHT22;33771;48.180;11.400;2023-01-19T15:06:58;0.70;99.90
48007;DHT22;33771;48.180;11.400;2023-01-19T15:09:24;0.70;99.90
48007;DHT22;33771;48.180;11.400;2023-01-19T15:11:50;0.70;99.90
48007;DHT22;33771;48.180;11.400;2023-01-19T15:14:17;0.70;99.90
48007;DHT22;33771;48.180;11.400;2023-01-19T15:16:44;0.60;99.90
48007;DHT22;33771;48.180;11.400;2023-01-19T15:19:12;0.60;99.90
48007;DHT22;33771;48.180;11.400;2023-01-19T15:21:38;0.60;99.90
48007;DHT22;33771;48.180;11.400;2023-01-19T15:24:09;0.50;99.90
48007;DHT22;33771;48.180;11.400;2023-01-19T15:26:37;0.50;99.90
48007;DHT22;33771;48.180;11.400;2023-01-19T15:29:15;0.40;99.90
48007;DHT22;33771;48.180;11.400;2023-01-19T15:31:42;0.40;99.90
48007;DHT22;33771;48.180;11.400;2023-01-19T15:34:10;0.40;99.90
48007;DHT22;33771;48.180;11.400;2023-01-19T15:36:36;0.40;99.90
48007;DHT22;33771;48.180;11.400;2023-01-19T15:39:02;0.30;99.90
48007;DHT22;33771;48.180;11.400;2023-01-19T15:41:28;0.30;99.90
48007;DHT22;33771;48.180;11.400;2023-01-19T15:43:57;0.30;99.90
48007;DHT22;33771;48.180;11.400;2023-01-19T15:46:23;0.30;99.90
48007;DHT22;33771;48.180;11.400;2023-01-19T15:48:50;0.30;99.90
48007;DHT22;33771;48.180;11.400;2023-01-19T15:51:19;0.20;99.90
48007;DHT22;33771;48.180;11.400;2023-01-19T15:53:45;0.20;99.90
48007;DHT22;33771;48.180;11.400;2023-01-19T15:56:22;0.20;99.90
48007;DHT22;33771;48.180;11.400;2023-01-19T15:58:49;0.20;99.90
48007;DHT22;33771;48.180;11.400;2023-01-19T16:01:22;0.10;99.90
48007;DHT22;33771;48.180;11.400;2023-01-19T16:03:49;0.10;99.90
48007;DHT22;33771;48.180;11.400;2023-01-19T16:06:15;0.10;99.90
48007;DHT22;33771;48.180;11.400;2023-01-19T16:08:41;0.10;99.90
48007;DHT22;33771;48.180;11.400;2023-01-19T16:11:14;0.10;99.90
48007;DHT22;33771;48.180;11.400;2023-01-19T16:13:43;0.00;99.90
48007;DHT22;33771;48.180;11.400;2023-01-19T16:16:16;0.00;99.90
48007;DHT22;33771;48.180;11.400;2023-01-19T16:18:42;-0.10;99.90
48007;DHT22;33771;48.180;11.400;2023-01-19T16:21:07;-0.10;99.90
48007;DHT22;33771;48.180;11.400;2023-01-19T16:23:33;0.00;99.90
48007;DHT22;33771;48.180;11.400;2023-01-19T16:26:04;-0.10;99.90
48007;DHT22;33771;48.180;11.400;2023-01-19T16:28:33;-0.10;99.90
48007;DHT22;33771;48.180;11.400;2023-01-19T16:30:59;-0.10;99.90
48007;DHT22;33771;48.180;11.400;2023-01-19T16:33:24;-0.20;99.90
48007;DHT22;33771;48.180;11.400;2023-01-19T16:35:51;-0.20;99.90
48007;DHT22;33771;48.180;11.400;2023-01-19T16:38:16;-0.20;99.90
48007;DHT22;33771;48.180;11.400;2023-01-19T16:40:43;-0.30;99.90
48007;DHT22;33771;48.180;11.400;2023-01-19T16:43:12;-0.30;99.90
48007;DHT22;33771;48.180;11.400;2023-01-19T16:45:59;-0.30;99.90
48007;DHT22;33771;48.180;11.400;2023-01-19T16:48:26;-0.30;99.90
48007;DHT22;33771;48.180;11.400;2023-01-19T16:51:03;-0.30;99.90
48007;DHT22;33771;48.180;11.400;2023-01-19T16:53:30;-0.30;99.90
48007;DHT22;33771;48.180;11.400;2023-01-19T16:55:56;-0.30;99.90
48007;DHT22;33771;48.180;11.400;2023-01-19T16:58:21;-0.30;99.90